sensor_id;sensor_type;location;lat;lon;timestamp;P1;P2;P0
74880;PMS5003;63427;49.654;6.596;2024-03-23T00:51:39;47;45;
74880;PMS5003;63427;49.654;6.596;2024-03-23T00:54:04;46;46;
74880;PMS5003;63427;49.654;6.596;2024-03-23T00:56:37;49;46;
74880;PMS5003;63427;49.654;6.596;2024-03-23T01:01:20;46;45;
74880;PMS5003;63427;49.654;6.596;2024-03-23T01:03:46;50;49;
74880;PMS5003;63427;49.654;6.596;2024-03-23T01:06:11;46;44;
74880;PMS5003;63427;49.654;6.596;2024-03-23T01:08:37;53;52;
74880;PMS5003;63427;49.654;6.596;2024-03-23T01:11:02;40;39;
74880;PMS5003;63427;49.654;6.596;2024-03-23T01:18:37;43;41;
74880;PMS5003;63427;49.654;6.596;2024-03-23T01:25:34;42;39;
74880;PMS5003;63427;49.654;6.596;2024-03-23T01:28:01;34;33;
74880;PMS5003;63427;49.654;6.596;2024-03-23T01:30:24;39;38;
74880;PMS5003;63427;49.654;6.596;2024-03-23T01:32:49;38;37;
74880;PMS5003;63427;49.654;6.596;2024-03-23T01:35:15;33;32;
74880;PMS5003;63427;49.654;6.596;2024-03-23T01:37:40;28;28;
74880;PMS5003;63427;49.654;6.596;2024-03-23T01:42:38;31;30;
74880;PMS5003;63427;49.654;6.596;2024-03-23T01:45:01;34;34;
74880;PMS5003;63427;49.654;6.596;2024-03-23T01:47:22;34;32;
74880;PMS5003;63427;49.654;6.596;2024-03-23T01:52:12;35;33;
74880;PMS5003;63427;49.654;6.596;2024-03-23T01:54:38;32;31;
74880;PMS5003;63427;49.654;6.596;2024-03-23T01:59:28;32;32;
74880;PMS5003;63427;49.654;6.596;2024-03-23T02:01:54;29;29;
74880;PMS5003;63427;49.654;6.596;2024-03-23T02:04:39;32;30;
74880;PMS5003;63427;49.654;6.596;2024-03-23T02:06:44;30;30;
74880;PMS5003;63427;49.654;6.596;2024-03-23T02:11:35;26;25;
74880;PMS5003;63427;49.654;6.596;2024-03-23T02:14:01;28;27;
74880;PMS5003;63427;49.654;6.596;2024-03-23T02:16:37;27;27;
74880;PMS5003;63427;49.654;6.596;2024-03-23T02:18:51;26;25;
74880;PMS5003;63427;49.654;6.596;2024-03-23T02:21:21;23;23;
74880;PMS5003;63427;49.654;6.596;2024-03-23T02:28:33;22;22;
74880;PMS5003;63427;49.654;6.596;2024-03-23T02:30:59;19;17;
74880;PMS5003;63427;49.654;6.596;2024-03-23T02:35:51;5;5;
74880;PMS5003;63427;49.654;6.596;2024-03-23T02:38:16;5;5;
74880;PMS5003;63427;49.654;6.596;2024-03-23T02:43:07;5;5;
74880;PMS5003;63427;49.654;6.596;2024-03-23T02:50:24;4;3;
74880;PMS5003;63427;49.654;6.596;2024-03-23T02:57:40;2;2;
74880;PMS5003;63427;49.654;6.596;2024-03-23T03:02:31;2;2;
74880;PMS5003;63427;49.654;6.596;2024-03-23T03:04:57;2;2;
74880;PMS5003;63427;49.654;6.596;2024-03-23T03:07:22;3;3;
74880;PMS5003;63427;49.654;6.596;2024-03-23T03:09:48;2;2;
74880;PMS5003;63427;49.654;6.596;2024-03-23T03:12:14;3;2;
74880;PMS5003;63427;49.654;6.596;2024-03-23T03:14:39;3;3;
74880;PMS5003;63427;49.654;6.596;2024-03-23T03:17:05;1;1;
74880;PMS5003;63427;49.654;6.596;2024-03-23T03:19:31;3;3;
74880;PMS5003;63427;49.654;6.596;2024-03-23T03:21:56;3;3;
74880;PMS5003;63427;49.654;6.596;2024-03-23T03:24:21;2;2;
74880;PMS5003;63427;49.654;6.596;2024-03-23T03:26:47;2;2;
74880;PMS5003;63427;49.654;6.596;2024-03-23T03:31:38;2;1;
74880;PMS5003;63427;49.654;6.596;2024-03-23T03:34:04;2;2;
74880;PMS5003;63427;49.654;6.596;2024-03-23T03:36:29;3;3;
74880;PMS5003;63427;49.654;6.596;2024-03-23T03:38:57;1;1;
74880;PMS5003;63427;49.654;6.596;2024-03-23T03:41:20;2;2;
74880;PMS5003;63427;49.654;6.596;2024-03-23T03:46:12;1;1;
74880;PMS5003;63427;49.654;6.596;2024-03-23T03:48:37;3;3;
74880;PMS5003;63427;49.654;6.596;2024-03-23T03:51:03;0;0;
74880;PMS5003;63427;49.654;6.596;2024-03-23T03:53:28;2;2;
74880;PMS5003;63427;49.654;6.596;2024-03-23T03:55:54;1;1;
74880;PMS5003;63427;49.654;6.596;2024-03-23T03:58:20;2;2;
74880;PMS5003;63427;49.654;6.596;2024-03-23T04:00:45;2;2;
74880;PMS5003;63427;49.654;6.596;2024-03-23T04:03:11;2;2;
74880;PMS5003;63427;49.654;6.596;2024-03-23T04:05:37;2;2;
74880;PMS5003;63427;49.654;6.596;2024-03-23T04:08:02;2;2;
74880;PMS5003;63427;49.654;6.596;2024-03-23T04:10:28;2;2;
74880;PMS5003;63427;49.654;6.596;2024-03-23T04:12:53;2;2;
74880;PMS5003;63427;49.654;6.596;2024-03-23T04:15:19;1;1;
74880;PMS5003;63427;49.654;6.596;2024-03-23T04:17:45;1;1;
74880;PMS5003;63427;49.654;6.596;2024-03-23T04:20:10;1;1;
74880;PMS5003;63427;49.654;6.596;2024-03-23T04:22:36;2;2;
74880;PMS5003;63427;49.654;6.596;2024-03-23T04:25:01;1;1;
74880;PMS5003;63427;49.654;6.596;2024-03-23T04:27:27;0;0;
74880;PMS5003;63427;49.654;6.596;2024-03-23T04:29:53;1;1;
74880;PMS5003;63427;49.654;6.596;2024-03-23T04:32:18;1;1;
74880;PMS5003;63427;49.654;6.596;2024-03-23T04:34:44;2;2;
74880;PMS5003;63427;49.654;6.596;2024-03-23T04:37:09;1;1;
74880;PMS5003;63427;49.654;6.596;2024-03-23T04:39:35;2;2;
74880;PMS5003;63427;49.654;6.596;2024-03-23T04:42:01;0;0;
74880;PMS5003;63427;49.654;6.596;2024-03-23T04:49:18;0;0;
74880;PMS5003;63427;49.654;6.596;2024-03-23T04:51:43;1;1;
74880;PMS5003;63427;49.654;6.596;2024-03-23T04:54:09;0;0;
74880;PMS5003;63427;49.654;6.596;2024-03-23T04:56:34;0;0;
74880;PMS5003;63427;49.654;6.596;2024-03-23T04:59:00;1;1;
74880;PMS5003;63427;49.654;6.596;2024-03-23T05:06:17;1;1;
74880;PMS5003;63427;49.654;6.596;2024-03-23T05:08:42;1;1;
74880;PMS5003;63427;49.654;6.596;2024-03-23T05:11:08;0;0;
74880;PMS5003;63427;49.654;6.596;2024-03-23T05:13:34;1;1;
74880;PMS5003;63427;49.654;6.596;2024-03-23T05:15:59;0;0;
74880;PMS5003;63427;49.654;6.596;2024-03-23T05:18:25;0;0;
74880;PMS5003;63427;49.654;6.596;2024-03-23T05:23:16;1;1;
74880;PMS5003;63427;49.654;6.596;2024-03-23T05:25:42;1;1;
74880;PMS5003;63427;49.654;6.596;2024-03-23T05:28:07;1;0;
74880;PMS5003;63427;49.654;6.596;2024-03-23T05:30:33;0;0;
74880;PMS5003;63427;49.654;6.596;2024-03-23T05:32:59;1;1;
74880;PMS5003;63427;49.654;6.596;2024-03-23T05:37:50;1;1;
74880;PMS5003;63427;49.654;6.596;2024-03-23T05:43:01;2;2;
74880;PMS5003;63427;49.654;6.596;2024-03-23T05:47:33;2;2;
74880;PMS5003;63427;49.654;6.596;2024-03-23T05:50:10;3;3;
74880;PMS5003;63427;49.654;6.596;2024-03-23T05:52:38;3;3;
74880;PMS5003;63427;49.654;6.596;2024-03-23T05:57:15;3;3;
74880;PMS5003;63427;49.654;6.596;2024-03-23T06:00:01;3;3;
74880;PMS5003;63427;49.654;6.596;2024-03-23T06:04:32;3;3;
74880;PMS5003;63427;49.654;6.596;2024-03-23T06:07:01;3;3;
74880;PMS5003;63427;49.654;6.596;2024-03-23T06:09:24;3;3;
74880;PMS5003;63427;49.654;6.596;2024-03-23T06:11:49;3;3;
74880;PMS5003;63427;49.654;6.596;2024-03-23T06:14:15;5;5;
74880;PMS5003;63427;49.654;6.596;2024-03-23T06:16:41;5;5;
74880;PMS5003;63427;49.654;6.596;2024-03-23T06:21:32;5;5;
74880;PMS5003;63427;49.654;6.596;2024-03-23T06:23:57;5;5;
74880;PMS5003;63427;49.654;6.596;2024-03-23T06:26:23;6;6;
74880;PMS5003;63427;49.654;6.596;2024-03-23T06:28:49;4;4;
74880;PMS5003;63427;49.654;6.596;2024-03-23T06:33:40;5;4;
74880;PMS5003;63427;49.654;6.596;2024-03-23T06:36:06;6;6;
74880;PMS5003;63427;49.654;6.596;2024-03-23T06:38:31;6;5;
74880;PMS5003;63427;49.654;6.596;2024-03-23T06:40:57;4;4;
74880;PMS5003;63427;49.654;6.596;2024-03-23T06:43:22;6;6;
74880;PMS5003;63427;49.654;6.596;2024-03-23T06:45:52;4;4;
74880;PMS5003;63427;49.654;6.596;2024-03-23T06:48:16;4;4;
74880;PMS5003;63427;49.654;6.596;2024-03-23T06:50:39;4;4;
74880;PMS5003;63427;49.654;6.596;2024-03-23T06:53:05;4;4;
74880;PMS5003;63427;49.654;6.596;2024-03-23T06:55:30;6;6;
74880;PMS5003;63427;49.654;6.596;2024-03-23T06:57:56;5;5;
74880;PMS5003;63427;49.654;6.596;2024-03-23T07:00:22;6;6;
74880;PMS5003;63427;49.654;6.596;2024-03-23T07:02:47;4;4;
74880;PMS5003;63427;49.654;6.596;2024-03-23T07:07:39;7;7;
74880;PMS5003;63427;49.654;6.596;2024-03-23T07:12:30;7;7;
74880;PMS5003;63427;49.654;6.596;2024-03-23T07:14:56;9;8;
74880;PMS5003;63427;49.654;6.596;2024-03-23T07:17:21;12;11;
74880;PMS5003;63427;49.654;6.596;2024-03-23T07:22:12;13;13;
74880;PMS5003;63427;49.654;6.596;2024-03-23T07:24:41;7;7;
74880;PMS5003;63427;49.654;6.596;2024-03-23T07:27:04;14;14;
74880;PMS5003;63427;49.654;6.596;2024-03-23T07:29:29;10;10;
74880;PMS5003;63427;49.654;6.596;2024-03-23T07:31:54;11;11;
74880;PMS5003;63427;49.654;6.596;2024-03-23T07:34:19;11;11;
74880;PMS5003;63427;49.654;6.596;2024-03-23T07:36:44;15;13;
74880;PMS5003;63427;49.654;6.596;2024-03-23T07:39:10;12;12;
74880;PMS5003;63427;49.654;6.596;2024-03-23T07:41:35;10;10;
74880;PMS5003;63427;49.654;6.596;2024-03-23T07:44:01;15;14;
74880;PMS5003;63427;49.654;6.596;2024-03-23T07:48:52;14;14;
74880;PMS5003;63427;49.654;6.596;2024-03-23T07:51:18;11;10;
74880;PMS5003;63427;49.654;6.596;2024-03-23T07:53:43;15;14;
74880;PMS5003;63427;49.654;6.596;2024-03-23T07:56:08;10;10;
74880;PMS5003;63427;49.654;6.596;2024-03-23T07:58:34;15;15;
74880;PMS5003;63427;49.654;6.596;2024-03-23T08:03:24;13;12;
74880;PMS5003;63427;49.654;6.596;2024-03-23T08:05:50;13;13;
74880;PMS5003;63427;49.654;6.596;2024-03-23T08:08:15;12;12;
74880;PMS5003;63427;49.654;6.596;2024-03-23T08:13:06;18;18;
74880;PMS5003;63427;49.654;6.596;2024-03-23T08:15:32;12;12;
74880;PMS5003;63427;49.654;6.596;2024-03-23T08:17:57;15;13;
74880;PMS5003;63427;49.654;6.596;2024-03-23T08:20:23;17;16;
74880;PMS5003;63427;49.654;6.596;2024-03-23T08:22:51;14;14;
74880;PMS5003;63427;49.654;6.596;2024-03-23T08:25:13;16;16;
74880;PMS5003;63427;49.654;6.596;2024-03-23T08:34:55;12;10;
74880;PMS5003;63427;49.654;6.596;2024-03-23T08:39:46;15;14;
74880;PMS5003;63427;49.654;6.596;2024-03-23T08:42:11;18;16;
74880;PMS5003;63427;49.654;6.596;2024-03-23T08:44:36;15;13;
74880;PMS5003;63427;49.654;6.596;2024-03-23T08:47:01;13;12;
74880;PMS5003;63427;49.654;6.596;2024-03-23T08:51:53;14;11;
74880;PMS5003;63427;49.654;6.596;2024-03-23T08:54:18;12;10;
74880;PMS5003;63427;49.654;6.596;2024-03-23T08:56:43;11;10;
74880;PMS5003;63427;49.654;6.596;2024-03-23T08:59:09;11;10;
74880;PMS5003;63427;49.654;6.596;2024-03-23T09:04:00;9;8;
74880;PMS5003;63427;49.654;6.596;2024-03-23T09:06:26;9;8;
74880;PMS5003;63427;49.654;6.596;2024-03-23T09:08:51;9;9;
74880;PMS5003;63427;49.654;6.596;2024-03-23T09:11:17;6;6;
74880;PMS5003;63427;49.654;6.596;2024-03-23T09:13:42;10;9;
74880;PMS5003;63427;49.654;6.596;2024-03-23T09:16:08;9;8;
74880;PMS5003;63427;49.654;6.596;2024-03-23T09:18:34;6;6;
74880;PMS5003;63427;49.654;6.596;2024-03-23T09:20:59;9;9;
74880;PMS5003;63427;49.654;6.596;2024-03-23T09:23:24;9;9;
74880;PMS5003;63427;49.654;6.596;2024-03-23T09:25:50;8;8;
74880;PMS5003;63427;49.654;6.596;2024-03-23T09:28:15;10;10;
74880;PMS5003;63427;49.654;6.596;2024-03-23T09:30:41;10;10;
74880;PMS5003;63427;49.654;6.596;2024-03-23T09:33:06;8;8;
74880;PMS5003;63427;49.654;6.596;2024-03-23T09:35:32;10;10;
74880;PMS5003;63427;49.654;6.596;2024-03-23T09:37:57;10;10;
74880;PMS5003;63427;49.654;6.596;2024-03-23T09:40:29;7;7;
74880;PMS5003;63427;49.654;6.596;2024-03-23T09:45:17;8;8;
74880;PMS5003;63427;49.654;6.596;2024-03-23T09:50:05;8;8;
74880;PMS5003;63427;49.654;6.596;2024-03-23T09:52:30;8;7;
74880;PMS5003;63427;49.654;6.596;2024-03-23T09:54:55;9;8;
74880;PMS5003;63427;49.654;6.596;2024-03-23T09:57:21;11;10;
74880;PMS5003;63427;49.654;6.596;2024-03-23T09:59:46;13;9;
74880;PMS5003;63427;49.654;6.596;2024-03-23T10:02:11;11;10;
74880;PMS5003;63427;49.654;6.596;2024-03-23T10:04:38;11;10;
74880;PMS5003;63427;49.654;6.596;2024-03-23T10:09:29;9;9;
74880;PMS5003;63427;49.654;6.596;2024-03-23T10:11:53;10;9;
74880;PMS5003;63427;49.654;6.596;2024-03-23T10:19:09;6;6;
74880;PMS5003;63427;49.654;6.596;2024-03-23T10:24:01;7;7;
74880;PMS5003;63427;49.654;6.596;2024-03-23T10:26:25;9;9;
74880;PMS5003;63427;49.654;6.596;2024-03-23T10:28:52;11;11;
74880;PMS5003;63427;49.654;6.596;2024-03-23T10:31:20;8;8;
74880;PMS5003;63427;49.654;6.596;2024-03-23T10:36:07;9;9;
74880;PMS5003;63427;49.654;6.596;2024-03-23T10:38:37;5;5;
74880;PMS5003;63427;49.654;6.596;2024-03-23T10:40:57;4;4;
74880;PMS5003;63427;49.654;6.596;2024-03-23T10:43:23;6;6;
74880;PMS5003;63427;49.654;6.596;2024-03-23T10:45:49;13;11;
74880;PMS5003;63427;49.654;6.596;2024-03-23T10:48:14;6;6;
74880;PMS5003;63427;49.654;6.596;2024-03-23T10:50:39;4;4;
74880;PMS5003;63427;49.654;6.596;2024-03-23T10:55:30;2;2;
74880;PMS5003;63427;49.654;6.596;2024-03-23T10:57:56;2;2;
74880;PMS5003;63427;49.654;6.596;2024-03-23T11:00:21;1;0;
74880;PMS5003;63427;49.654;6.596;2024-03-23T11:02:47;1;1;
74880;PMS5003;63427;49.654;6.596;2024-03-23T11:07:38;2;1;
74880;PMS5003;63427;49.654;6.596;2024-03-23T11:10:04;1;1;
74880;PMS5003;63427;49.654;6.596;2024-03-23T11:12:38;1;1;
74880;PMS5003;63427;49.654;6.596;2024-03-23T11:14:58;1;0;
74880;PMS5003;63427;49.654;6.596;2024-03-23T11:17:20;1;1;
74880;PMS5003;63427;49.654;6.596;2024-03-23T11:22:38;1;1;
74880;PMS5003;63427;49.654;6.596;2024-03-23T11:24:37;2;2;
74880;PMS5003;63427;49.654;6.596;2024-03-23T11:29:29;2;2;
74880;PMS5003;63427;49.654;6.596;2024-03-23T11:31:53;2;1;
74880;PMS5003;63427;49.654;6.596;2024-03-23T11:34:20;1;1;
74880;PMS5003;63427;49.654;6.596;2024-03-23T11:36:49;2;2;
74880;PMS5003;63427;49.654;6.596;2024-03-23T11:39:13;1;1;
74880;PMS5003;63427;49.654;6.596;2024-03-23T11:41:35;1;1;
74880;PMS5003;63427;49.654;6.596;2024-03-23T11:46:26;3;3;
74880;PMS5003;63427;49.654;6.596;2024-03-23T11:51:17;2;2;
74880;PMS5003;63427;49.654;6.596;2024-03-23T11:53:42;3;3;
74880;PMS5003;63427;49.654;6.596;2024-03-23T11:56:07;1;1;
74880;PMS5003;63427;49.654;6.596;2024-03-23T11:58:34;2;2;
74880;PMS5003;63427;49.654;6.596;2024-03-23T12:00:59;3;2;
74880;PMS5003;63427;49.654;6.596;2024-03-23T12:03:24;2;2;
74880;PMS5003;63427;49.654;6.596;2024-03-23T12:05:49;4;3;
74880;PMS5003;63427;49.654;6.596;2024-03-23T12:08:15;2;2;
74880;PMS5003;63427;49.654;6.596;2024-03-23T12:10:40;2;2;
74880;PMS5003;63427;49.654;6.596;2024-03-23T12:13:05;2;2;
74880;PMS5003;63427;49.654;6.596;2024-03-23T12:15:31;3;3;
74880;PMS5003;63427;49.654;6.596;2024-03-23T12:20:21;1;1;
74880;PMS5003;63427;49.654;6.596;2024-03-23T12:25:12;2;2;
74880;PMS5003;63427;49.654;6.596;2024-03-23T12:27:38;0;0;
74880;PMS5003;63427;49.654;6.596;2024-03-23T12:32:28;2;2;
74880;PMS5003;63427;49.654;6.596;2024-03-23T12:34:53;2;2;
74880;PMS5003;63427;49.654;6.596;2024-03-23T12:37:24;4;3;
74880;PMS5003;63427;49.654;6.596;2024-03-23T12:39:44;1;1;
74880;PMS5003;63427;49.654;6.596;2024-03-23T12:42:09;1;1;
74880;PMS5003;63427;49.654;6.596;2024-03-23T12:44:38;3;3;
74880;PMS5003;63427;49.654;6.596;2024-03-23T12:47:01;2;2;
74880;PMS5003;63427;49.654;6.596;2024-03-23T12:49:28;1;1;
74880;PMS5003;63427;49.654;6.596;2024-03-23T12:51:53;1;1;
74880;PMS5003;63427;49.654;6.596;2024-03-23T12:56:42;0;0;
74880;PMS5003;63427;49.654;6.596;2024-03-23T12:59:07;2;2;
74880;PMS5003;63427;49.654;6.596;2024-03-23T13:03:58;0;0;
74880;PMS5003;63427;49.654;6.596;2024-03-23T13:06:24;1;1;
74880;PMS5003;63427;49.654;6.596;2024-03-23T13:08:48;1;1;
74880;PMS5003;63427;49.654;6.596;2024-03-23T13:11:14;1;1;
74880;PMS5003;63427;49.654;6.596;2024-03-23T13:13:39;1;1;
74880;PMS5003;63427;49.654;6.596;2024-03-23T13:16:05;2;1;
74880;PMS5003;63427;49.654;6.596;2024-03-23T13:20:55;2;1;
74880;PMS5003;63427;49.654;6.596;2024-03-23T13:23:21;1;1;
74880;PMS5003;63427;49.654;6.596;2024-03-23T13:28:12;1;1;
74880;PMS5003;63427;49.654;6.596;2024-03-23T13:30:37;1;1;
74880;PMS5003;63427;49.654;6.596;2024-03-23T13:35:28;1;1;
74880;PMS5003;63427;49.654;6.596;2024-03-23T13:37:56;1;1;
74880;PMS5003;63427;49.654;6.596;2024-03-23T13:40:19;3;3;
74880;PMS5003;63427;49.654;6.596;2024-03-23T13:42:45;1;0;
74880;PMS5003;63427;49.654;6.596;2024-03-23T13:45:10;3;2;
74880;PMS5003;63427;49.654;6.596;2024-03-23T13:47:36;1;1;
74880;PMS5003;63427;49.654;6.596;2024-03-23T13:50:01;0;0;
74880;PMS5003;63427;49.654;6.596;2024-03-23T13:54:52;0;0;
74880;PMS5003;63427;49.654;6.596;2024-03-23T13:59:43;0;0;
74880;PMS5003;63427;49.654;6.596;2024-03-23T14:04:34;1;1;
74880;PMS5003;63427;49.654;6.596;2024-03-23T14:06:59;0;0;
74880;PMS5003;63427;49.654;6.596;2024-03-23T14:09:25;2;2;
74880;PMS5003;63427;49.654;6.596;2024-03-23T14:14:15;1;1;
74880;PMS5003;63427;49.654;6.596;2024-03-23T14:16:41;1;1;
74880;PMS5003;63427;49.654;6.596;2024-03-23T14:19:06;0;0;
74880;PMS5003;63427;49.654;6.596;2024-03-23T14:21:32;2;2;
74880;PMS5003;63427;49.654;6.596;2024-03-23T14:23:57;1;1;
74880;PMS5003;63427;49.654;6.596;2024-03-23T14:26:23;1;0;
74880;PMS5003;63427;49.654;6.596;2024-03-23T14:28:48;3;2;
74880;PMS5003;63427;49.654;6.596;2024-03-23T14:31:13;3;3;
74880;PMS5003;63427;49.654;6.596;2024-03-23T14:33:39;3;3;
74880;PMS5003;63427;49.654;6.596;2024-03-23T14:36:05;1;1;
74880;PMS5003;63427;49.654;6.596;2024-03-23T14:38:30;3;3;
74880;PMS5003;63427;49.654;6.596;2024-03-23T14:40:57;0;0;
74880;PMS5003;63427;49.654;6.596;2024-03-23T14:43:21;1;0;
74880;PMS5003;63427;49.654;6.596;2024-03-23T14:48:12;0;0;
74880;PMS5003;63427;49.654;6.596;2024-03-23T14:50:38;0;0;
74880;PMS5003;63427;49.654;6.596;2024-03-23T14:53:04;1;0;
74880;PMS5003;63427;49.654;6.596;2024-03-23T15:05:12;0;0;
74880;PMS5003;63427;49.654;6.596;2024-03-23T15:07:38;1;1;
74880;PMS5003;63427;49.654;6.596;2024-03-23T15:10:03;0;0;
74880;PMS5003;63427;49.654;6.596;2024-03-23T15:12:29;1;1;
74880;PMS5003;63427;49.654;6.596;2024-03-23T15:15:01;1;1;
74880;PMS5003;63427;49.654;6.596;2024-03-23T15:17:20;0;0;
74880;PMS5003;63427;49.654;6.596;2024-03-23T15:19:46;1;1;
74880;PMS5003;63427;49.654;6.596;2024-03-23T15:24:37;1;1;
74880;PMS5003;63427;49.654;6.596;2024-03-23T15:27:03;2;2;
74880;PMS5003;63427;49.654;6.596;2024-03-23T15:29:28;2;1;
74880;PMS5003;63427;49.654;6.596;2024-03-23T15:32:01;3;3;
74880;PMS5003;63427;49.654;6.596;2024-03-23T15:36:45;1;1;
74880;PMS5003;63427;49.654;6.596;2024-03-23T15:39:11;2;1;
74880;PMS5003;63427;49.654;6.596;2024-03-23T15:41:36;2;1;
74880;PMS5003;63427;49.654;6.596;2024-03-23T15:46:28;1;1;
74880;PMS5003;63427;49.654;6.596;2024-03-23T15:48:53;0;0;
74880;PMS5003;63427;49.654;6.596;2024-03-23T15:51:19;2;2;
74880;PMS5003;63427;49.654;6.596;2024-03-23T15:53:45;2;2;
74880;PMS5003;63427;49.654;6.596;2024-03-23T15:56:11;1;1;
74880;PMS5003;63427;49.654;6.596;2024-03-23T15:58:36;3;3;
74880;PMS5003;63427;49.654;6.596;2024-03-23T16:01:02;2;2;
74880;PMS5003;63427;49.654;6.596;2024-03-23T16:05:59;2;1;
74880;PMS5003;63427;49.654;6.596;2024-03-23T16:08:19;1;1;
74880;PMS5003;63427;49.654;6.596;2024-03-23T16:15:36;2;1;
74880;PMS5003;63427;49.654;6.596;2024-03-23T16:18:10;2;2;
74880;PMS5003;63427;49.654;6.596;2024-03-23T16:20:27;1;1;
74880;PMS5003;63427;49.654;6.596;2024-03-23T16:22:53;1;1;
74880;PMS5003;63427;49.654;6.596;2024-03-23T16:27:44;1;1;
74880;PMS5003;63427;49.654;6.596;2024-03-23T16:30:11;2;2;
74880;PMS5003;63427;49.654;6.596;2024-03-23T16:32:36;1;1;
74880;PMS5003;63427;49.654;6.596;2024-03-23T16:35:01;1;1;
74880;PMS5003;63427;49.654;6.596;2024-03-23T16:37:27;2;2;
74880;PMS5003;63427;49.654;6.596;2024-03-23T16:42:22;1;1;
74880;PMS5003;63427;49.654;6.596;2024-03-23T16:44:44;2;2;
74880;PMS5003;63427;49.654;6.596;2024-03-23T16:47:10;1;1;
74880;PMS5003;63427;49.654;6.596;2024-03-23T16:49:35;1;1;
74880;PMS5003;63427;49.654;6.596;2024-03-23T16:52:01;1;1;
74880;PMS5003;63427;49.654;6.596;2024-03-23T16:54:27;0;0;
74880;PMS5003;63427;49.654;6.596;2024-03-23T16:57:01;1;1;
74880;PMS5003;63427;49.654;6.596;2024-03-23T17:01:44;0;0;
74880;PMS5003;63427;49.654;6.596;2024-03-23T17:06:43;1;1;
74880;PMS5003;63427;49.654;6.596;2024-03-23T17:09:01;1;1;
74880;PMS5003;63427;49.654;6.596;2024-03-23T17:11:26;0;0;
74880;PMS5003;63427;49.654;6.596;2024-03-23T17:13:52;1;1;
74880;PMS5003;63427;49.654;6.596;2024-03-23T17:16:18;1;1;
74880;PMS5003;63427;49.654;6.596;2024-03-23T17:18:44;0;0;
74880;PMS5003;63427;49.654;6.596;2024-03-23T17:21:09;1;1;
74880;PMS5003;63427;49.654;6.596;2024-03-23T17:23:35;2;2;
74880;PMS5003;63427;49.654;6.596;2024-03-23T17:26:01;2;2;
74880;PMS5003;63427;49.654;6.596;2024-03-23T17:30:52;1;1;
74880;PMS5003;63427;49.654;6.596;2024-03-23T17:33:18;1;1;
74880;PMS5003;63427;49.654;6.596;2024-03-23T17:52:44;1;1;
74880;PMS5003;63427;49.654;6.596;2024-03-23T17:55:09;2;1;
74880;PMS5003;63427;49.654;6.596;2024-03-23T17:57:35;1;1;
74880;PMS5003;63427;49.654;6.596;2024-03-23T18:00:01;0;0;
74880;PMS5003;63427;49.654;6.596;2024-03-23T18:07:18;3;2;
74880;PMS5003;63427;49.654;6.596;2024-03-23T18:09:44;1;1;
74880;PMS5003;63427;49.654;6.596;2024-03-23T18:12:09;1;1;
74880;PMS5003;63427;49.654;6.596;2024-03-23T18:14:36;2;1;
74880;PMS5003;63427;49.654;6.596;2024-03-23T18:17:01;1;1;
74880;PMS5003;63427;49.654;6.596;2024-03-23T18:19:26;1;1;
74880;PMS5003;63427;49.654;6.596;2024-03-23T18:24:18;1;1;
74880;PMS5003;63427;49.654;6.596;2024-03-23T18:26:44;1;1;
74880;PMS5003;63427;49.654;6.596;2024-03-23T18:29:09;1;1;
74880;PMS5003;63427;49.654;6.596;2024-03-23T18:31:38;2;2;
74880;PMS5003;63427;49.654;6.596;2024-03-23T18:34:01;1;1;
74880;PMS5003;63427;49.654;6.596;2024-03-23T18:36:27;1;1;
74880;PMS5003;63427;49.654;6.596;2024-03-23T18:38:56;1;1;
74880;PMS5003;63427;49.654;6.596;2024-03-23T18:41:18;2;2;
74880;PMS5003;63427;49.654;6.596;2024-03-23T18:46:10;1;1;
74880;PMS5003;63427;49.654;6.596;2024-03-23T18:48:38;1;1;
74880;PMS5003;63427;49.654;6.596;2024-03-23T18:51:01;1;1;
74880;PMS5003;63427;49.654;6.596;2024-03-23T18:55:53;1;1;
74880;PMS5003;63427;49.654;6.596;2024-03-23T18:58:18;1;0;
74880;PMS5003;63427;49.654;6.596;2024-03-23T19:00:44;1;1;
74880;PMS5003;63427;49.654;6.596;2024-03-23T19:03:10;3;2;
74880;PMS5003;63427;49.654;6.596;2024-03-23T19:05:36;4;3;
74880;PMS5003;63427;49.654;6.596;2024-03-23T19:08:13;1;1;
74880;PMS5003;63427;49.654;6.596;2024-03-23T19:17:45;2;2;
74880;PMS5003;63427;49.654;6.596;2024-03-23T19:20:11;4;3;
74880;PMS5003;63427;49.654;6.596;2024-03-23T19:22:36;3;2;
74880;PMS5003;63427;49.654;6.596;2024-03-23T19:32:19;7;6;
74880;PMS5003;63427;49.654;6.596;2024-03-23T19:37:11;5;5;
74880;PMS5003;63427;49.654;6.596;2024-03-23T19:39:36;4;4;
74880;PMS5003;63427;49.654;6.596;2024-03-23T19:46:54;4;3;
74880;PMS5003;63427;49.654;6.596;2024-03-23T19:51:45;4;4;
74880;PMS5003;63427;49.654;6.596;2024-03-23T19:54:11;2;2;
74880;PMS5003;63427;49.654;6.596;2024-03-23T19:56:39;4;4;
74880;PMS5003;63427;49.654;6.596;2024-03-23T20:03:54;4;3;
74880;PMS5003;63427;49.654;6.596;2024-03-23T20:08:45;3;3;
74880;PMS5003;63427;49.654;6.596;2024-03-23T20:11:11;5;5;
74880;PMS5003;63427;49.654;6.596;2024-03-23T20:13:37;3;3;
74880;PMS5003;63427;49.654;6.596;2024-03-23T20:16:03;5;4;
74880;PMS5003;63427;49.654;6.596;2024-03-23T20:18:28;3;3;
74880;PMS5003;63427;49.654;6.596;2024-03-23T20:20:54;4;4;
74880;PMS5003;63427;49.654;6.596;2024-03-23T20:23:33;3;3;
74880;PMS5003;63427;49.654;6.596;2024-03-23T20:28:11;5;5;
74880;PMS5003;63427;49.654;6.596;2024-03-23T20:30:37;4;4;
74880;PMS5003;63427;49.654;6.596;2024-03-23T20:33:03;4;3;
74880;PMS5003;63427;49.654;6.596;2024-03-23T20:35:29;4;4;
74880;PMS5003;63427;49.654;6.596;2024-03-23T20:37:54;3;3;
74880;PMS5003;63427;49.654;6.596;2024-03-23T20:40:20;4;4;
74880;PMS5003;63427;49.654;6.596;2024-03-23T20:42:46;2;2;
74880;PMS5003;63427;49.654;6.596;2024-03-23T20:47:37;3;2;
74880;PMS5003;63427;49.654;6.596;2024-03-23T20:50:03;3;3;
74880;PMS5003;63427;49.654;6.596;2024-03-23T20:52:29;3;2;
74880;PMS5003;63427;49.654;6.596;2024-03-23T20:54:55;3;2;
74880;PMS5003;63427;49.654;6.596;2024-03-23T20:57:20;3;3;
74880;PMS5003;63427;49.654;6.596;2024-03-23T21:02:12;1;1;
74880;PMS5003;63427;49.654;6.596;2024-03-23T21:04:37;2;2;
74880;PMS5003;63427;49.654;6.596;2024-03-23T21:07:03;1;1;
74880;PMS5003;63427;49.654;6.596;2024-03-23T21:09:29;2;2;
74880;PMS5003;63427;49.654;6.596;2024-03-23T21:12:04;1;1;
74880;PMS5003;63427;49.654;6.596;2024-03-23T21:14:35;1;1;
74880;PMS5003;63427;49.654;6.596;2024-03-23T21:16:50;4;4;
74880;PMS5003;63427;49.654;6.596;2024-03-23T21:19:12;1;1;
74880;PMS5003;63427;49.654;6.596;2024-03-23T21:21:38;3;2;
74880;PMS5003;63427;49.654;6.596;2024-03-23T21:26:29;1;1;
74880;PMS5003;63427;49.654;6.596;2024-03-23T21:28:55;1;1;
74880;PMS5003;63427;49.654;6.596;2024-03-23T21:31:21;1;1;
74880;PMS5003;63427;49.654;6.596;2024-03-23T21:33:46;2;2;
74880;PMS5003;63427;49.654;6.596;2024-03-23T21:36:12;3;3;
74880;PMS5003;63427;49.654;6.596;2024-03-23T21:41:04;1;1;
74880;PMS5003;63427;49.654;6.596;2024-03-23T21:46:02;2;2;
74880;PMS5003;63427;49.654;6.596;2024-03-23T21:48:21;2;2;
74880;PMS5003;63427;49.654;6.596;2024-03-23T21:50:47;1;1;
74880;PMS5003;63427;49.654;6.596;2024-03-23T21:53:13;2;2;
74880;PMS5003;63427;49.654;6.596;2024-03-23T21:58:04;2;2;
74880;PMS5003;63427;49.654;6.596;2024-03-23T22:03:01;1;1;
74880;PMS5003;63427;49.654;6.596;2024-03-23T22:05:21;2;2;
74880;PMS5003;63427;49.654;6.596;2024-03-23T22:07:47;3;3;
74880;PMS5003;63427;49.654;6.596;2024-03-23T22:10:13;8;8;